sensor_id;sensor_type;location;lat;lon;timestamp;P1;durP1;ratioP1;P2;durP2;ratioP2
74788;SDS011;63313;48.258;12.518;2023-07-13T00:00:11;4.94;;;3.2;;
74788;SDS011;63313;48.258;12.518;2023-07-13T00:05:38;3.7600000000000002;;;3.0300000000000002;;
74788;SDS011;63313;48.258;12.518;2023-07-13T00:11:05;4.8;;;2.89;;
74788;SDS011;63313;48.258;12.518;2023-07-13T00:16:33;4.14;;;3.18;;
74788;SDS011;63313;48.258;12.518;2023-07-13T00:22:00;6.380000000000001;;;3.13;;
74788;SDS011;63313;48.258;12.518;2023-07-13T00:27:27;4.57;;;2.9299999999999997;;
74788;SDS011;63313;48.258;12.518;2023-07-13T00:33:55;9.559999999999999;;;3.7699999999999996;;
74788;SDS011;63313;48.258;12.518;2023-07-13T00:39:22;9.74;;;3.08;;
74788;SDS011;63313;48.258;12.518;2023-07-13T00:45:06;3.8099999999999996;;;3.2;;
74788;SDS011;63313;48.258;12.518;2023-07-13T00:50:33;5.26;;;3.13;;
74788;SDS011;63313;48.258;12.518;2023-07-13T00:56:00;5.880000000000001;;;3.37;;
74788;SDS011;63313;48.258;12.518;2023-07-13T01:01:28;5.1899999999999995;;;2.89;;
74788;SDS011;63313;48.258;12.518;2023-07-13T01:06:55;6.010000000000001;;;2.77;;
74788;SDS011;63313;48.258;12.518;2023-07-13T01:12:22;4.83;;;2.8299999999999996;;
74788;SDS011;63313;48.258;12.518;2023-07-13T01:17:49;6.089999999999999;;;3.35;;
74788;SDS011;63313;48.258;12.518;2023-07-13T01:23:17;5.65;;;3.38;;
74788;SDS011;63313;48.258;12.518;2023-07-13T01:28:44;4.13;;;3.3900000000000006;;
74788;SDS011;63313;48.258;12.518;2023-07-13T01:34:11;5.409999999999999;;;3.1400000000000006;;
74788;SDS011;63313;48.258;12.518;2023-07-13T01:39:38;7.19;;;3.2699999999999996;;
74788;SDS011;63313;48.258;12.518;2023-07-13T01:45:05;8.709999999999999;;;3.1599999999999997;;
74788;SDS011;63313;48.258;12.518;2023-07-13T01:50:33;6.790000000000001;;;3.05;;
74788;SDS011;63313;48.258;12.518;2023-07-13T01:56:00;4.11;;;3.02;;
74788;SDS011;63313;48.258;12.518;2023-07-13T02:01:27;6.15;;;3.02;;
74788;SDS011;63313;48.258;12.518;2023-07-13T02:06:54;9.32;;;3.05;;
74788;SDS011;63313;48.258;12.518;2023-07-13T02:12:21;5.59;;;3.0800000000000005;;
74788;SDS011;63313;48.258;12.518;2023-07-13T02:17:48;5.33;;;3.5800000000000005;;
74788;SDS011;63313;48.258;12.518;2023-07-13T02:23:15;5.880000000000001;;;3.7699999999999996;;
74788;SDS011;63313;48.258;12.518;2023-07-13T02:28:42;5.62;;;3.5;;
74788;SDS011;63313;48.258;12.518;2023-07-13T02:34:09;7.159999999999999;;;3.69;;
74788;SDS011;63313;48.258;12.518;2023-07-13T02:39:36;4.340000000000001;;;3.55;;
74788;SDS011;63313;48.258;12.518;2023-07-13T02:45:04;7.17;;;3.5799999999999996;;
74788;SDS011;63313;48.258;12.518;2023-07-13T02:50:31;3.96;;;3.2900000000000005;;
74788;SDS011;63313;48.258;12.518;2023-07-13T02:55:58;4.55;;;3.6699999999999995;;
74788;SDS011;63313;48.258;12.518;2023-07-13T03:01:25;7.839999999999999;;;4.1899999999999995;;
74788;SDS011;63313;48.258;12.518;2023-07-13T03:06:52;6.659999999999999;;;3.69;;
74788;SDS011;63313;48.258;12.518;2023-07-13T03:12:19;4.11;;;3.3;;
74788;SDS011;63313;48.258;12.518;2023-07-13T03:17:46;4.569999999999999;;;3.54;;
74788;SDS011;63313;48.258;12.518;2023-07-13T03:23:13;7.289999999999999;;;3.3400000000000007;;
74788;SDS011;63313;48.258;12.518;2023-07-13T03:28:41;5.26;;;3.47;;
74788;SDS011;63313;48.258;12.518;2023-07-13T03:34:08;6.65;;;3.6799999999999997;;
74788;SDS011;63313;48.258;12.518;2023-07-13T03:39:35;6.909999999999999;;;4.26;;
74788;SDS011;63313;48.258;12.518;2023-07-13T03:45:03;6.08;;;3.3;;
74788;SDS011;63313;48.258;12.518;2023-07-13T03:50:30;9.14;;;3.3699999999999997;;
74788;SDS011;63313;48.258;12.518;2023-07-13T03:55:57;8.090000000000002;;;3.79;;
74788;SDS011;63313;48.258;12.518;2023-07-13T04:01:24;5.090000000000001;;;3.5200000000000005;;
74788;SDS011;63313;48.258;12.518;2023-07-13T04:06:51;4.8100000000000005;;;3.29;;
74788;SDS011;63313;48.258;12.518;2023-07-13T04:12:18;4.7700000000000005;;;3.1399999999999997;;
74788;SDS011;63313;48.258;12.518;2023-07-13T04:17:45;4.029999999999999;;;2.97;;
74788;SDS011;63313;48.258;12.518;2023-07-13T04:23:13;5.84;;;3.29;;
74788;SDS011;63313;48.258;12.518;2023-07-13T04:28:40;7.2;;;3.900000000000001;;
74788;SDS011;63313;48.258;12.518;2023-07-13T04:34:07;7.7;;;3.8600000000000003;;
74788;SDS011;63313;48.258;12.518;2023-07-13T04:39:34;6.7700000000000005;;;3.0799999999999996;;
74788;SDS011;63313;48.258;12.518;2023-07-13T04:45:01;10.27;;;3.7999999999999994;;
74788;SDS011;63313;48.258;12.518;2023-07-13T04:50:28;5.21;;;3.3200000000000003;;
74788;SDS011;63313;48.258;12.518;2023-07-13T04:55:55;9.22;;;4.2;;
74788;SDS011;63313;48.258;12.518;2023-07-13T05:01:23;7.95;;;3.84;;
74788;SDS011;63313;48.258;12.518;2023-07-13T05:06:50;12.52;;;3.8899999999999997;;
74788;SDS011;63313;48.258;12.518;2023-07-13T05:12:17;12.65;;;4.11;;
74788;SDS011;63313;48.258;12.518;2023-07-13T05:17:44;10.379999999999999;;;4.000000000000001;;
74788;SDS011;63313;48.258;12.518;2023-07-13T05:23:11;10.25;;;4.7299999999999995;;
74788;SDS011;63313;48.258;12.518;2023-07-13T05:28:38;8.17;;;4.699999999999999;;
74788;SDS011;63313;48.258;12.518;2023-07-13T05:34:05;7.65;;;4.26;;
74788;SDS011;63313;48.258;12.518;2023-07-13T05:39:32;5.51;;;4.04;;
74788;SDS011;63313;48.258;12.518;2023-07-13T05:44:59;8.01;;;4.35;;
74788;SDS011;63313;48.258;12.518;2023-07-13T05:50:27;7.75;;;4.239999999999999;;
74788;SDS011;63313;48.258;12.518;2023-07-13T05:55:54;6.780000000000001;;;4.1899999999999995;;
74788;SDS011;63313;48.258;12.518;2023-07-13T06:01:21;5.9;;;3.96;;
74788;SDS011;63313;48.258;12.518;2023-07-13T06:06:48;6.040000000000001;;;3.7699999999999996;;
74788;SDS011;63313;48.258;12.518;2023-07-13T06:12:15;7.4;;;3.38;;
74788;SDS011;63313;48.258;12.518;2023-07-13T06:17:42;6.25;;;3.5200000000000005;;
74788;SDS011;63313;48.258;12.518;2023-07-13T06:23:09;6.959999999999999;;;3.6399999999999997;;
74788;SDS011;63313;48.258;12.518;2023-07-13T06:28:37;4.130000000000001;;;3.6399999999999997;;
74788;SDS011;63313;48.258;12.518;2023-07-13T06:34:04;5.41;;;3.47;;
74788;SDS011;63313;48.258;12.518;2023-07-13T06:39:32;6.5;;;4.000000000000001;;
74788;SDS011;63313;48.258;12.518;2023-07-13T06:44:59;7.630000000000001;;;4.01;;
74788;SDS011;63313;48.258;12.518;2023-07-13T06:50:26;8.479999999999999;;;3.8400000000000007;;
74788;SDS011;63313;48.258;12.518;2023-07-13T06:55:53;9.000000000000002;;;4.540000000000001;;
74788;SDS011;63313;48.258;12.518;2023-07-13T07:01:20;10.87;;;4.2299999999999995;;
74788;SDS011;63313;48.258;12.518;2023-07-13T07:06:47;7.75;;;3.9699999999999998;;
74788;SDS011;63313;48.258;12.518;2023-07-13T07:12:14;7.35;;;3.3;;
74788;SDS011;63313;48.258;12.518;2023-07-13T07:17:41;8.209999999999999;;;3.6400000000000006;;
74788;SDS011;63313;48.258;12.518;2023-07-13T07:23:08;7.139999999999999;;;3.5200000000000005;;
74788;SDS011;63313;48.258;12.518;2023-07-13T07:28:36;8.620000000000001;;;2.8899999999999997;;
74788;SDS011;63313;48.258;12.518;2023-07-13T07:34:03;6.03;;;2.8600000000000003;;
74788;SDS011;63313;48.258;12.518;2023-07-13T07:39:30;5.8;;;3.3599999999999994;;
74788;SDS011;63313;48.258;12.518;2023-07-13T07:44:57;4.42;;;3.0100000000000007;;
74788;SDS011;63313;48.258;12.518;2023-07-13T07:50:24;8.55;;;3.1100000000000003;;
74788;SDS011;63313;48.258;12.518;2023-07-13T07:55:51;4.85;;;2.8299999999999996;;
74788;SDS011;63313;48.258;12.518;2023-07-13T08:01:18;7.32;;;2.89;;
74788;SDS011;63313;48.258;12.518;2023-07-13T08:06:46;5.08;;;3.22;;
74788;SDS011;63313;48.258;12.518;2023-07-13T08:12:13;6.75;;;2.81;;
74788;SDS011;63313;48.258;12.518;2023-07-13T08:17:40;13.24;;;3.0300000000000002;;
74788;SDS011;63313;48.258;12.518;2023-07-13T08:23:07;6.05;;;2.7;;
74788;SDS011;63313;48.258;12.518;2023-07-13T08:28:36;14.180000000000001;;;3.4;;
74788;SDS011;63313;48.258;12.518;2023-07-13T08:34:03;5.0;;;2.94;;
74788;SDS011;63313;48.258;12.518;2023-07-13T08:39:30;5.5600000000000005;;;2.6100000000000003;;
74788;SDS011;63313;48.258;12.518;2023-07-13T08:45:00;5.930000000000001;;;2.67;;
74788;SDS011;63313;48.258;12.518;2023-07-13T08:50:30;5.910000000000001;;;2.84;;
74788;SDS011;63313;48.258;12.518;2023-07-13T08:55:59;5.130000000000001;;;2.84;;
74788;SDS011;63313;48.258;12.518;2023-07-13T09:01:29;3.2300000000000004;;;2.54;;
74788;SDS011;63313;48.258;12.518;2023-07-13T09:06:59;5.35;;;3.1000000000000005;;
74788;SDS011;63313;48.258;12.518;2023-07-13T09:12:31;9.99;;;3.66;;
74788;SDS011;63313;48.258;12.518;2023-07-13T09:18:02;6.39;;;2.7599999999999993;;
74788;SDS011;63313;48.258;12.518;2023-07-13T09:23:30;6.24;;;3.0400000000000005;;
74788;SDS011;63313;48.258;12.518;2023-07-13T09:28:58;9.510000000000002;;;3.4699999999999998;;
74788;SDS011;63313;48.258;12.518;2023-07-13T09:34:27;7.140000000000001;;;2.67;;
74788;SDS011;63313;48.258;12.518;2023-07-13T09:39:54;6.640000000000001;;;2.8599999999999994;;
74788;SDS011;63313;48.258;12.518;2023-07-13T09:45:26;3.79;;;2.55;;
74788;SDS011;63313;48.258;12.518;2023-07-13T09:50:54;5.59;;;2.39;;
74788;SDS011;63313;48.258;12.518;2023-07-13T09:56:22;5.9;;;2.0700000000000003;;
74788;SDS011;63313;48.258;12.518;2023-07-13T10:01:49;4.909999999999999;;;1.7999999999999996;;
74788;SDS011;63313;48.258;12.518;2023-07-13T10:07:16;3.71;;;1.8599999999999999;;
74788;SDS011;63313;48.258;12.518;2023-07-13T10:12:44;4.65;;;1.9200000000000004;;
74788;SDS011;63313;48.258;12.518;2023-07-13T10:18:11;6.409999999999999;;;2.36;;
74788;SDS011;63313;48.258;12.518;2023-07-13T10:23:38;4.819999999999999;;;2.4699999999999998;;
74788;SDS011;63313;48.258;12.518;2023-07-13T10:29:05;5.9799999999999995;;;2.3;;
74788;SDS011;63313;48.258;12.518;2023-07-13T10:34:35;4.51;;;2.3099999999999996;;
74788;SDS011;63313;48.258;12.518;2023-07-13T10:40:03;2.8099999999999996;;;2.2599999999999993;;
74788;SDS011;63313;48.258;12.518;2023-07-13T10:45:33;3.35;;;2.4299999999999997;;
74788;SDS011;63313;48.258;12.518;2023-07-13T10:51:01;4.02;;;2.3699999999999997;;
74788;SDS011;63313;48.258;12.518;2023-07-13T10:56:30;3.22;;;2.41;;
74788;SDS011;63313;48.258;12.518;2023-07-13T11:01:58;3.97;;;2.18;;
74788;SDS011;63313;48.258;12.518;2023-07-13T11:07:26;5.220000000000001;;;1.9300000000000002;;
74788;SDS011;63313;48.258;12.518;2023-07-13T11:12:53;3.8299999999999996;;;2.3499999999999996;;
74788;SDS011;63313;48.258;12.518;2023-07-13T11:18:22;5.639999999999999;;;1.8199999999999998;;
74788;SDS011;63313;48.258;12.518;2023-07-13T11:23:52;5.45;;;1.69;;
74788;SDS011;63313;48.258;12.518;2023-07-13T11:29:31;3.09;;;2.12;;
74788;SDS011;63313;48.258;12.518;2023-07-13T11:34:59;3.7600000000000002;;;1.3900000000000001;;
74788;SDS011;63313;48.258;12.518;2023-07-13T11:40:26;1.6300000000000001;;;1.5299999999999998;;
74788;SDS011;63313;48.258;12.518;2023-07-13T11:45:54;3.8199999999999994;;;1.37;;
74788;SDS011;63313;48.258;12.518;2023-07-13T11:51:22;5.430000000000001;;;1.45;;
74788;SDS011;63313;48.258;12.518;2023-07-13T11:56:50;2.9000000000000004;;;1.44;;
74788;SDS011;63313;48.258;12.518;2023-07-13T12:02:20;2.25;;;1.3399999999999999;;
74788;SDS011;63313;48.258;12.518;2023-07-13T12:07:50;3.71;;;1.08;;
74788;SDS011;63313;48.258;12.518;2023-07-13T12:13:17;4.359999999999999;;;1.3800000000000001;;
74788;SDS011;63313;48.258;12.518;2023-07-13T12:18:45;6.57;;;1.2700000000000002;;
74788;SDS011;63313;48.258;12.518;2023-07-13T12:24:16;4.85;;;1.6199999999999999;;
74788;SDS011;63313;48.258;12.518;2023-07-13T12:29:48;4.410000000000001;;;1.4100000000000001;;
74788;SDS011;63313;48.258;12.518;2023-07-13T12:35:16;3.44;;;1.36;;
74788;SDS011;63313;48.258;12.518;2023-07-13T12:40:43;2.7;;;1.35;;
74788;SDS011;63313;48.258;12.518;2023-07-13T12:46:16;5.29;;;1.25;;
74788;SDS011;63313;48.258;12.518;2023-07-13T12:51:43;7.4399999999999995;;;1.41;;
74788;SDS011;63313;48.258;12.518;2023-07-13T12:57:13;2.77;;;1.33;;
74788;SDS011;63313;48.258;12.518;2023-07-13T13:02:43;5.59;;;1.31;;
74788;SDS011;63313;48.258;12.518;2023-07-13T13:08:10;2.96;;;1.54;;
74788;SDS011;63313;48.258;12.518;2023-07-13T13:13:38;5.220000000000001;;;1.69;;
74788;SDS011;63313;48.258;12.518;2023-07-13T13:19:12;3.84;;;1.7099999999999997;;
74788;SDS011;63313;48.258;12.518;2023-07-13T13:24:39;2.17;;;1.49;;
74788;SDS011;63313;48.258;12.518;2023-07-13T13:30:10;6.409999999999999;;;2.63;;
74788;SDS011;63313;48.258;12.518;2023-07-13T13:35:37;2.91;;;1.8;;
74788;SDS011;63313;48.258;12.518;2023-07-13T13:41:05;4.03;;;1.65;;
74788;SDS011;63313;48.258;12.518;2023-07-13T13:46:32;5.369999999999999;;;1.9100000000000001;;
74788;SDS011;63313;48.258;12.518;2023-07-13T13:51:59;6.790000000000001;;;1.5099999999999998;;
74788;SDS011;63313;48.258;12.518;2023-07-13T13:57:26;5.02;;;1.9999999999999996;;
74788;SDS011;63313;48.258;12.518;2023-07-13T14:02:54;4.98;;;1.9999999999999996;;
74788;SDS011;63313;48.258;12.518;2023-07-13T14:08:21;2.62;;;1.4300000000000002;;
74788;SDS011;63313;48.258;12.518;2023-07-13T14:13:48;4.319999999999999;;;1.67;;
74788;SDS011;63313;48.258;12.518;2023-07-13T14:19:16;4.159999999999999;;;1.7399999999999998;;
74788;SDS011;63313;48.258;12.518;2023-07-13T14:24:43;4.11;;;1.6900000000000002;;
74788;SDS011;63313;48.258;12.518;2023-07-13T14:30:12;2.32;;;1.5999999999999999;;
74788;SDS011;63313;48.258;12.518;2023-07-13T14:35:39;2.29;;;1.51;;
74788;SDS011;63313;48.258;12.518;2023-07-13T14:41:07;1.98;;;1.4899999999999998;;
74788;SDS011;63313;48.258;12.518;2023-07-13T14:46:35;5.73;;;1.55;;
74788;SDS011;63313;48.258;12.518;2023-07-13T14:52:03;3.45;;;1.46;;
74788;SDS011;63313;48.258;12.518;2023-07-13T14:57:32;2.8899999999999997;;;1.7600000000000002;;
74788;SDS011;63313;48.258;12.518;2023-07-13T15:02:59;2.81;;;1.45;;
74788;SDS011;63313;48.258;12.518;2023-07-13T15:08:27;4.42;;;1.7399999999999998;;
74788;SDS011;63313;48.258;12.518;2023-07-13T15:13:54;2.92;;;1.9899999999999998;;
74788;SDS011;63313;48.258;12.518;2023-07-13T15:19:21;3.1500000000000004;;;1.4300000000000002;;
74788;SDS011;63313;48.258;12.518;2023-07-13T15:24:49;3.8000000000000007;;;1.5699999999999998;;
74788;SDS011;63313;48.258;12.518;2023-07-13T15:30:16;1.73;;;1.53;;
74788;SDS011;63313;48.258;12.518;2023-07-13T15:35:43;2.8400000000000003;;;1.6;;
74788;SDS011;63313;48.258;12.518;2023-07-13T15:41:13;4.77;;;1.7;;
74788;SDS011;63313;48.258;12.518;2023-07-13T15:46:42;1.8199999999999998;;;1.52;;
74788;SDS011;63313;48.258;12.518;2023-07-13T15:52:11;3.45;;;1.46;;
74788;SDS011;63313;48.258;12.518;2023-07-13T15:57:43;7.24;;;1.65;;
74788;SDS011;63313;48.258;12.518;2023-07-13T16:03:11;2.1599999999999997;;;1.2300000000000002;;
74788;SDS011;63313;48.258;12.518;2023-07-13T16:08:38;3.8200000000000003;;;1.5899999999999999;;
74788;SDS011;63313;48.258;12.518;2023-07-13T16:14:06;7.67;;;2.02;;
74788;SDS011;63313;48.258;12.518;2023-07-13T16:19:33;1.9599999999999997;;;1.56;;
74788;SDS011;63313;48.258;12.518;2023-07-13T16:25:00;2.5300000000000002;;;1.29;;
74788;SDS011;63313;48.258;12.518;2023-07-13T16:30:28;3.11;;;1.48;;
74788;SDS011;63313;48.258;12.518;2023-07-13T16:35:55;2.44;;;1.36;;
74788;SDS011;63313;48.258;12.518;2023-07-13T16:41:22;4.029999999999999;;;1.7;;
74788;SDS011;63313;48.258;12.518;2023-07-13T16:46:50;2.47;;;1.38;;
74788;SDS011;63313;48.258;12.518;2023-07-13T16:52:18;2.5000000000000004;;;1.7599999999999998;;
74788;SDS011;63313;48.258;12.518;2023-07-13T16:57:45;16.1;;;2.04;;
74788;SDS011;63313;48.258;12.518;2023-07-13T17:03:13;9.780000000000001;;;1.3900000000000001;;
74788;SDS011;63313;48.258;12.518;2023-07-13T17:08:40;4.25;;;1.7;;
74788;SDS011;63313;48.258;12.518;2023-07-13T17:14:12;2.9299999999999997;;;1.8799999999999997;;
74788;SDS011;63313;48.258;12.518;2023-07-13T17:19:39;3.85;;;1.5299999999999998;;
74788;SDS011;63313;48.258;12.518;2023-07-13T17:25:08;4.6;;;1.49;;
74788;SDS011;63313;48.258;12.518;2023-07-13T17:30:36;3.7;;;1.65;;
74788;SDS011;63313;48.258;12.518;2023-07-13T17:36:04;2.7299999999999995;;;1.5;;
74788;SDS011;63313;48.258;12.518;2023-07-13T17:41:32;2.8;;;1.67;;
74788;SDS011;63313;48.258;12.518;2023-07-13T17:46:59;1.9099999999999997;;;1.6600000000000001;;
74788;SDS011;63313;48.258;12.518;2023-07-13T17:52:26;4.17;;;1.59;;
74788;SDS011;63313;48.258;12.518;2023-07-13T17:57:53;3.2400000000000007;;;1.5399999999999998;;
74788;SDS011;63313;48.258;12.518;2023-07-13T18:03:21;3.31;;;1.64;;
74788;SDS011;63313;48.258;12.518;2023-07-13T18:08:49;3.2;;;1.41;;
74788;SDS011;63313;48.258;12.518;2023-07-13T18:14:17;3.9199999999999995;;;1.4999999999999998;;
74788;SDS011;63313;48.258;12.518;2023-07-13T18:19:44;5.34;;;1.6300000000000001;;
74788;SDS011;63313;48.258;12.518;2023-07-13T18:25:13;4.12;;;1.7299999999999998;;
74788;SDS011;63313;48.258;12.518;2023-07-13T18:30:41;7.390000000000001;;;1.6;;
74788;SDS011;63313;48.258;12.518;2023-07-13T18:36:09;4.23;;;1.92;;
74788;SDS011;63313;48.258;12.518;2023-07-13T18:41:37;8.11;;;2.9400000000000004;;
74788;SDS011;63313;48.258;12.518;2023-07-13T18:47:04;5.199999999999999;;;2.4200000000000004;;
74788;SDS011;63313;48.258;12.518;2023-07-13T18:52:31;3.71;;;2.1000000000000005;;
74788;SDS011;63313;48.258;12.518;2023-07-13T18:57:58;3.1699999999999995;;;2.52;;
74788;SDS011;63313;48.258;12.518;2023-07-13T19:03:26;3.5599999999999996;;;2.09;;
74788;SDS011;63313;48.258;12.518;2023-07-13T19:08:54;2.05;;;1.4499999999999997;;
74788;SDS011;63313;48.258;12.518;2023-07-13T19:14:22;2.63;;;1.43;;
74788;SDS011;63313;48.258;12.518;2023-07-13T19:19:49;4.95;;;1.7600000000000002;;
74788;SDS011;63313;48.258;12.518;2023-07-13T19:25:16;4.290000000000001;;;1.9099999999999997;;
74788;SDS011;63313;48.258;12.518;2023-07-13T19:30:43;3.15;;;1.5900000000000003;;
74788;SDS011;63313;48.258;12.518;2023-07-13T19:36:11;3.3;;;1.7700000000000002;;
74788;SDS011;63313;48.258;12.518;2023-07-13T19:41:39;2.17;;;1.6799999999999997;;
74788;SDS011;63313;48.258;12.518;2023-07-13T19:47:09;4.08;;;2.0100000000000002;;
74788;SDS011;63313;48.258;12.518;2023-07-13T19:52:36;4.08;;;1.97;;
74788;SDS011;63313;48.258;12.518;2023-07-13T19:58:07;2.3200000000000003;;;1.67;;
74788;SDS011;63313;48.258;12.518;2023-07-13T20:03:36;9.33;;;2.27;;
74788;SDS011;63313;48.258;12.518;2023-07-13T20:09:10;6.11;;;2.41;;
74788;SDS011;63313;48.258;12.518;2023-07-13T20:14:38;3.2600000000000002;;;2.1000000000000005;;
74788;SDS011;63313;48.258;12.518;2023-07-13T20:20:15;3.18;;;1.8399999999999999;;
74788;SDS011;63313;48.258;12.518;2023-07-13T20:25:43;4.7299999999999995;;;2.31;;
74788;SDS011;63313;48.258;12.518;2023-07-13T20:31:11;3.28;;;1.9600000000000002;;
74788;SDS011;63313;48.258;12.518;2023-07-13T20:36:39;2.98;;;2.14;;
74788;SDS011;63313;48.258;12.518;2023-07-13T20:42:08;3.7399999999999998;;;1.9700000000000002;;
74788;SDS011;63313;48.258;12.518;2023-07-13T20:47:35;2.32;;;1.94;;
74788;SDS011;63313;48.258;12.518;2023-07-13T20:53:04;6.359999999999999;;;2.3699999999999997;;
74788;SDS011;63313;48.258;12.518;2023-07-13T20:58:35;4.06;;;2.4000000000000004;;
74788;SDS011;63313;48.258;12.518;2023-07-13T21:04:04;4.890000000000001;;;2.31;;
74788;SDS011;63313;48.258;12.518;2023-07-13T21:09:31;3.04;;;2.45;;
74788;SDS011;63313;48.258;12.518;2023-07-13T21:14:58;2.8;;;2.3099999999999996;;
74788;SDS011;63313;48.258;12.518;2023-07-13T21:20:26;5.0600000000000005;;;2.44;;
74788;SDS011;63313;48.258;12.518;2023-07-13T21:25:54;6.87;;;3.7600000000000002;;
74788;SDS011;63313;48.258;12.518;2023-07-13T21:31:22;4.35;;;2.95;;
74788;SDS011;63313;48.258;12.518;2023-07-13T21:36:50;4.34;;;3.02;;
74788;SDS011;63313;48.258;12.518;2023-07-13T21:42:17;8.59;;;3.2599999999999993;;
74788;SDS011;63313;48.258;12.518;2023-07-13T21:47:44;3.38;;;2.7399999999999998;;
74788;SDS011;63313;48.258;12.518;2023-07-13T21:53:17;5.08;;;3.35;;
74788;SDS011;63313;48.258;12.518;2023-07-13T21:58:45;8.66;;;3.35;;
74788;SDS011;63313;48.258;12.518;2023-07-13T22:04:13;3.8099999999999996;;;3.3600000000000003;;
74788;SDS011;63313;48.258;12.518;2023-07-13T22:09:40;4.75;;;3.21;;
74788;SDS011;63313;48.258;12.518;2023-07-13T22:15:08;6.410000000000001;;;3.3299999999999996;;
74788;SDS011;63313;48.258;12.518;2023-07-13T22:20:35;4.38;;;3.15;;
74788;SDS011;63313;48.258;12.518;2023-07-13T22:26:05;6.01;;;3.2700000000000005;;
74788;SDS011;63313;48.258;12.518;2023-07-13T22:31:37;7.45;;;3.3299999999999996;;
74788;SDS011;63313;48.258;12.518;2023-07-13T22:37:04;6.45;;;3.62;;
74788;SDS011;63313;48.258;12.518;2023-07-13T22:42:31;8.56;;;3.79;;
74788;SDS011;63313;48.258;12.518;2023-07-13T22:47:58;5.27;;;3.2299999999999995;;
74788;SDS011;63313;48.258;12.518;2023-07-13T22:53:27;3.5100000000000002;;;3.0;;
74788;SDS011;63313;48.258;12.518;2023-07-13T22:58:57;3.78;;;3.2299999999999995;;
74788;SDS011;63313;48.258;12.518;2023-07-13T23:04:25;7.12;;;3.2299999999999995;;
74788;SDS011;63313;48.258;12.518;2023-07-13T23:09:52;6.279999999999999;;;3.3299999999999996;;
74788;SDS011;63313;48.258;12.518;2023-07-13T23:15:19;5.17;;;3.3800000000000003;;
74788;SDS011;63313;48.258;12.518;2023-07-13T23:20:46;5.640000000000001;;;3.71;;
74788;SDS011;63313;48.258;12.518;2023-07-13T23:26:16;5.96;;;3.5300000000000002;;
74788;SDS011;63313;48.258;12.518;2023-07-13T23:31:43;5.779999999999999;;;3.4900000000000007;;
74788;SDS011;63313;48.258;12.518;2023-07-13T23:37:13;4.36;;;3.28;;
74788;SDS011;63313;48.258;12.518;2023-07-13T23:42:42;8.17;;;3.5599999999999996;;
74788;SDS011;63313;48.258;12.518;2023-07-13T23:48:10;6.889999999999999;;;3.7299999999999995;;
74788;SDS011;63313;48.258;12.518;2023-07-13T23:53:37;4.880000000000001;;;3.3600000000000003;;
74788;SDS011;63313;48.258;12.518;2023-07-13T23:59:04;4.9;;;3.11;;
